Pueblitos, New Mexico
Current Conditions -  °F | °C
As of 10:55 PM on Friday 19 Dec 2014 (Local Time) from KE80 Reporting Station
Clear Clear  
Wind Chill: 27°   Ceiling: Unl
Heat Index: 27°   Visibility: 10mi
Dew Point: 23°   Wind: 3mph
Humidity: 86%   Direction: 350°N
Pressure: 30.2"   Gusts: NA
Location:  34.5756°N, 106.588°W
Report Text: KE80 200555Z AUTO 35003KT 10SM CLR M03/M05 A3020 RMK AO2 T10301050 10043 21034 400761059
Loading
Personal Weather Stations






























Interactive Weather Map New forecast layout! Learn more

10-Day Weather Forecast

Advertisements
Track Severe Weather on mobile